Time,TemperatureF,DewpointF,PressureIn,WindDirection,WindDirectionDegrees,WindSpeedMPH,WindSpeedGustMPH,Humidity,HourlyPrecipIn,Conditions,Clouds,dailyrainin,SoftwareType,DateUTC
2013-03-26 00:12:00,36.1,27.0,30.26,SSW,199,2.0,6.0,69,0.00,,,0.00,weatherlink.com 1.10,2013-03-26 05:12:00,
2013-03-26 00:29:00,35.8,25.0,30.26,WNW,288,2.0,8.0,66,0.00,,,0.00,weatherlink.com 1.10,2013-03-26 05:29:00,
2013-03-26 00:42:00,35.5,25.0,30.26,SSW,208,0.0,5.0,65,0.00,,,0.00,weatherlink.com 1.10,2013-03-26 05:42:00,
2013-03-26 00:57:00,35.2,25.0,30.27,NW,321,0.0,6.0,67,0.00,,,0.00,weatherlink.com 1.10,2013-03-26 05:57:00,
2013-03-26 01:12:00,35.1,25.0,30.26,West,271,1.0,6.0,68,0.00,,,0.00,weatherlink.com 1.10,2013-03-26 06:12:00,
2013-03-26 01:27:00,35.2,26.0,30.27,West,259,0.0,4.0,69,0.00,,,0.00,weatherlink.com 1.10,2013-03-26 06:27:00,
2013-03-26 01:42:00,35.0,25.0,30.27,WSW,237,2.0,4.0,68,0.00,,,0.00,weatherlink.com 1.10,2013-03-26 06:42:00,
2013-03-26 01:57:00,34.8,25.0,30.27,WSW,252,1.0,4.0,68,0.00,,,0.00,weatherlink.com 1.10,2013-03-26 06:57:00,
2013-03-26 02:12:00,34.3,25.0,30.27,ENE,67,2.0,5.0,68,0.00,,,0.00,weatherlink.com 1.10,2013-03-26 07:12:00,
2013-03-26 02:27:00,33.8,25.0,30.26,West,264,0.0,3.0,70,0.00,,,0.00,weatherlink.com 1.10,2013-03-26 07:27:00,
2013-03-26 02:42:00,33.3,24.0,30.25,SE,132,2.0,2.0,70,0.00,,,0.00,weatherlink.com 1.10,2013-03-26 07:42:00,
2013-03-26 02:58:00,32.8,24.0,30.26,SSE,157,1.0,6.0,71,0.00,,,0.00,weatherlink.com 1.10,2013-03-26 07:58:00,
2013-03-26 03:13:00,32.3,24.0,30.26,SW,215,1.0,4.0,71,0.00,,,0.00,weatherlink.com 1.10,2013-03-26 08:13:00,
2013-03-26 03:28:00,31.7,25.0,30.25,NNE,25,0.0,1.0,75,0.00,,,0.00,weatherlink.com 1.10,2013-03-26 08:28:00,
2013-03-26 03:43:00,31.1,25.0,30.25,East,85,0.0,3.0,78,0.00,,,0.00,weatherlink.com 1.10,2013-03-26 08:43:00,
2013-03-26 03:58:00,30.9,25.0,30.25,ENE,78,0.0,3.0,77,0.00,,,0.00,weatherlink.com 1.10,2013-03-26 08:58:00,
2013-03-26 04:13:00,31.0,25.0,30.26,SE,146,0.0,3.0,78,0.00,,,0.00,weatherlink.com 1.10,2013-03-26 09:13:00,
2013-03-26 04:28:00,31.7,25.0,30.26,SSW,195,0.0,2.0,77,0.00,,,0.00,weatherlink.com 1.10,2013-03-26 09:28:00,
2013-03-26 04:43:00,32.1,26.0,30.26,West,274,1.0,2.0,78,0.00,,,0.00,weatherlink.com 1.10,2013-03-26 09:43:00,
2013-03-26 04:58:00,32.5,25.0,30.27,SSW,207,3.0,4.0,74,0.00,,,0.00,weatherlink.com 1.10,2013-03-26 09:58:00,
2013-03-26 05:13:00,32.6,26.0,30.27,SW,220,0.0,5.0,75,0.00,,,0.00,weatherlink.com 1.10,2013-03-26 10:13:00,
2013-03-26 05:28:00,32.7,26.0,30.27,WNW,284,0.0,9.0,75,0.00,,,0.00,weatherlink.com 1.10,2013-03-26 10:28:00,
2013-03-26 05:43:00,32.7,26.0,30.27,NNW,336,1.0,2.0,76,0.00,,,0.00,weatherlink.com 1.10,2013-03-26 10:43:00,
2013-03-26 05:58:00,32.6,26.0,30.27,North,349,2.0,6.0,76,0.00,,,0.00,weatherlink.com 1.10,2013-03-26 10:58:00,
2013-03-26 06:13:00,32.5,26.0,30.28,ESE,103,0.0,1.0,78,0.00,,,0.00,weatherlink.com 1.10,2013-03-26 11:13:00,
2013-03-26 06:28:00,32.3,26.0,30.29,NNW,329,0.0,4.0,77,0.00,,,0.00,weatherlink.com 1.10,2013-03-26 11:28:00,
2013-03-26 06:43:00,31.8,26.0,30.29,North,7,0.0,5.0,78,0.00,,,0.00,weatherlink.com 1.10,2013-03-26 11:43:00,
2013-03-26 06:59:00,31.2,26.0,30.30,SSW,211,0.0,1.0,80,0.00,,,0.00,weatherlink.com 1.10,2013-03-26 11:59:00,
2013-03-26 07:14:00,30.5,26.0,30.30,NE,49,0.0,1.0,82,0.00,,,0.00,weatherlink.com 1.10,2013-03-26 12:14:00,
2013-03-26 07:29:00,30.1,26.0,30.31,NNE,20,0.0,0.0,84,0.00,,,0.00,weatherlink.com 1.10,2013-03-26 12:29:00,
2013-03-26 07:44:00,30.5,26.0,30.32,NE,48,0.0,3.0,84,0.00,,,0.00,weatherlink.com 1.10,2013-03-26 12:44:00,
2013-03-26 07:59:00,31.6,27.0,30.32,WSW,247,0.0,3.0,82,0.00,,,0.00,weatherlink.com 1.10,2013-03-26 12:59:00,
2013-03-26 08:14:00,32.7,27.0,30.33,NW,321,1.0,4.0,80,0.00,,,0.00,weatherlink.com 1.10,2013-03-26 13:14:00,
2013-03-26 08:29:00,33.5,27.0,30.33,NW,311,3.0,8.0,78,0.00,,,0.00,weatherlink.com 1.10,2013-03-26 13:29:00,
2013-03-26 08:44:00,34.4,28.0,30.34,WNW,286,0.0,7.0,76,0.00,,,0.00,weatherlink.com 1.10,2013-03-26 13:44:00,
2013-03-26 08:59:00,35.2,28.0,30.35,East,96,1.0,5.0,74,0.00,,,0.00,weatherlink.com 1.10,2013-03-26 13:59:00,
2013-03-26 09:14:00,36.3,29.0,30.35,NW,307,1.0,10.0,74,0.00,,,0.00,weatherlink.com 1.10,2013-03-26 14:14:00,
2013-03-26 09:29:00,37.7,28.0,30.35,WNW,293,2.0,9.0,68,0.00,,,0.00,weatherlink.com 1.10,2013-03-26 14:29:00,
2013-03-26 09:44:00,37.6,29.0,30.36,NNW,333,0.0,7.0,70,0.00,,,0.00,weatherlink.com 1.10,2013-03-26 14:44:00,
2013-03-26 09:59:00,37.9,29.0,30.36,NW,316,1.0,5.0,69,0.00,,,0.00,weatherlink.com 1.10,2013-03-26 14:59:00,
2013-03-26 10:14:00,38.6,28.0,30.37,East,87,2.0,9.0,66,0.00,,,0.00,weatherlink.com 1.10,2013-03-26 15:14:00,
2013-03-26 10:29:00,39.0,28.0,30.37,SW,229,0.0,12.0,65,0.00,,,0.00,weatherlink.com 1.10,2013-03-26 15:29:00,
2013-03-26 10:44:00,40.5,29.0,30.37,NNW,341,1.0,5.0,63,0.00,,,0.00,weatherlink.com 1.10,2013-03-26 15:44:00,
2013-03-26 10:59:00,40.0,28.0,30.37,West,272,0.0,5.0,62,0.00,,,0.00,weatherlink.com 1.10,2013-03-26 15:59:00,
2013-03-26 11:14:00,40.4,29.0,30.37,ENE,59,1.0,8.0,64,0.00,,,0.00,weatherlink.com 1.10,2013-03-26 16:14:00,
2013-03-26 11:29:00,40.3,27.0,30.37,NW,312,1.0,12.0,60,0.00,,,0.00,weatherlink.com 1.10,2013-03-26 16:29:00,
2013-03-26 11:44:00,41.0,28.0,30.37,North,11,2.0,5.0,60,0.00,,,0.00,weatherlink.com 1.10,2013-03-26 16:44:00,
2013-03-26 11:59:00,40.9,26.0,30.37,West,261,1.0,6.0,56,0.00,,,0.00,weatherlink.com 1.10,2013-03-26 16:59:00,
2013-03-26 12:14:00,41.9,27.0,30.38,NW,319,3.0,4.0,55,0.00,,,0.00,weatherlink.com 1.10,2013-03-26 17:14:00,
2013-03-26 12:29:00,41.4,27.0,30.38,WSW,241,1.0,5.0,56,0.00,,,0.00,weatherlink.com 1.10,2013-03-26 17:29:00,
2013-03-26 12:44:00,42.3,27.0,30.38,ENE,75,7.0,7.0,54,0.00,,,0.00,weatherlink.com 1.10,2013-03-26 17:44:00,
2013-03-26 12:59:00,42.1,25.0,30.38,North,6,2.0,8.0,52,0.00,,,0.00,weatherlink.com 1.10,2013-03-26 17:59:00,
2013-03-26 13:14:00,42.9,27.0,30.38,NNE,14,1.0,4.0,54,0.00,,,0.00,weatherlink.com 1.10,2013-03-26 18:14:00,
2013-03-26 13:29:00,42.9,27.0,30.38,NNW,334,2.0,5.0,53,0.00,,,0.00,weatherlink.com 1.10,2013-03-26 18:29:00,
2013-03-26 13:44:00,42.9,26.0,30.37,WNW,297,0.0,7.0,52,0.00,,,0.00,weatherlink.com 1.10,2013-03-26 18:44:00,
2013-03-26 13:59:00,42.9,27.0,30.36,North,350,0.0,9.0,53,0.00,,,0.00,weatherlink.com 1.10,2013-03-26 18:59:00,
2013-03-26 14:14:00,43.8,26.0,30.36,NW,324,1.0,6.0,50,0.00,,,0.00,weatherlink.com 1.10,2013-03-26 19:14:00,
2013-03-26 14:29:00,44.6,26.0,30.36,NE,53,4.0,5.0,49,0.00,,,0.00,weatherlink.com 1.10,2013-03-26 19:29:00,
2013-03-26 14:44:00,44.1,27.0,30.36,ENE,60,1.0,8.0,51,0.00,,,0.00,weatherlink.com 1.10,2013-03-26 19:44:00,
2013-03-26 15:00:00,45.6,28.0,30.35,NW,312,1.0,9.0,50,0.00,,,0.00,weatherlink.com 1.10,2013-03-26 20:00:00,
2013-03-26 15:15:00,45.1,27.0,30.35,SW,223,2.0,5.0,49,0.00,,,0.00,weatherlink.com 1.10,2013-03-26 20:15:00,
2013-03-26 15:30:00,44.7,27.0,30.35,NE,53,5.0,7.0,50,0.00,,,0.00,weatherlink.com 1.10,2013-03-26 20:30:00,
2013-03-26 15:45:00,45.1,25.0,30.35,SSE,163,0.0,7.0,45,0.00,,,0.00,weatherlink.com 1.10,2013-03-26 20:45:00,
2013-03-26 16:00:00,45.1,26.0,30.35,ENE,76,1.0,7.0,48,0.00,,,0.00,weatherlink.com 1.10,2013-03-26 21:00:00,
2013-03-26 16:15:00,47.1,26.0,30.34,West,272,0.0,6.0,44,0.00,,,0.00,weatherlink.com 1.10,2013-03-26 21:15:00,
2013-03-26 16:30:00,46.9,25.0,30.34,NW,326,4.0,8.0,42,0.00,,,0.00,weatherlink.com 1.10,2013-03-26 21:30:00,
2013-03-26 16:45:00,46.1,27.0,30.34,ENE,63,3.0,5.0,47,0.00,,,0.00,weatherlink.com 1.10,2013-03-26 21:45:00,
2013-03-26 17:00:00,46.2,26.0,30.34,NE,35,2.0,6.0,45,0.00,,,0.00,weatherlink.com 1.10,2013-03-26 22:00:00,
2013-03-26 17:15:00,46.9,25.0,30.34,WNW,297,1.0,5.0,43,0.00,,,0.00,weatherlink.com 1.10,2013-03-26 22:15:00,
2013-03-26 17:30:00,45.3,24.0,30.34,NW,317,0.0,3.0,44,0.00,,,0.00,weatherlink.com 1.10,2013-03-26 22:30:00,
2013-03-26 17:45:00,45.3,24.0,30.34,NW,317,1.0,6.0,44,0.00,,,0.00,weatherlink.com 1.10,2013-03-26 22:45:00,
2013-03-26 18:00:00,45.1,24.0,30.34,NNW,329,0.0,8.0,44,0.00,,,0.00,weatherlink.com 1.10,2013-03-26 23:00:00,
2013-03-26 18:15:00,45.0,25.0,30.34,WSW,245,0.0,6.0,45,0.00,,,0.00,weatherlink.com 1.10,2013-03-26 23:15:00,
2013-03-26 18:30:00,44.5,25.0,30.34,NNW,328,0.0,2.0,46,0.00,,,0.00,weatherlink.com 1.10,2013-03-26 23:30:00,
2013-03-26 18:45:00,43.8,27.0,30.35,WNW,291,0.0,1.0,51,0.00,,,0.00,weatherlink.com 1.10,2013-03-26 23:45:00,
2013-03-26 19:00:00,43.1,26.0,30.35,ENE,78,0.0,3.0,51,0.00,,,0.00,weatherlink.com 1.10,2013-03-27 00:00:00,
2013-03-26 19:15:00,42.4,25.0,30.35,NNW,335,0.0,1.0,51,0.00,,,0.00,weatherlink.com 1.10,2013-03-27 00:15:00,
2013-03-26 19:30:00,40.8,25.0,30.35,NNW,335,0.0,0.0,54,0.00,,,0.00,weatherlink.com 1.10,2013-03-27 00:30:00,
2013-03-26 19:45:00,39.3,25.0,30.36,NNW,335,0.0,0.0,56,0.00,,,0.00,weatherlink.com 1.10,2013-03-27 00:45:00,
2013-03-26 20:00:00,37.9,25.0,30.36,NNW,335,0.0,0.0,59,0.00,,,0.00,weatherlink.com 1.10,2013-03-27 01:00:00,
2013-03-26 20:15:00,36.8,27.0,30.37,NNW,335,0.0,0.0,67,0.00,,,0.00,weatherlink.com 1.10,2013-03-27 01:15:00,
2013-03-26 20:30:00,35.7,26.0,30.37,NNW,335,0.0,0.0,69,0.00,,,0.00,weatherlink.com 1.10,2013-03-27 01:30:00,
2013-03-26 20:45:00,35.0,28.0,30.36,NNW,335,0.0,0.0,74,0.00,,,0.00,weatherlink.com 1.10,2013-03-27 01:45:00,
2013-03-26 21:00:00,34.3,27.0,30.37,NNW,335,0.0,0.0,74,0.00,,,0.00,weatherlink.com 1.10,2013-03-27 02:00:00,
2013-03-26 21:15:00,33.6,27.0,30.37,NNW,335,0.0,0.0,76,0.00,,,0.00,weatherlink.com 1.10,2013-03-27 02:15:00,
2013-03-26 21:30:00,33.0,27.0,30.37,NNW,335,0.0,0.0,78,0.00,,,0.00,weatherlink.com 1.10,2013-03-27 02:30:00,
2013-03-26 21:45:00,32.5,27.0,30.37,NNW,335,0.0,0.0,80,0.00,,,0.00,weatherlink.com 1.10,2013-03-27 02:45:00,
2013-03-26 22:00:00,32.0,27.0,30.37,NNW,335,0.0,0.0,80,0.00,,,0.00,weatherlink.com 1.10,2013-03-27 03:00:00,
2013-03-26 22:15:00,31.4,27.0,30.37,NNW,335,0.0,0.0,82,0.00,,,0.00,weatherlink.com 1.10,2013-03-27 03:15:00,
2013-03-26 22:30:00,30.9,27.0,30.37,NNW,335,0.0,0.0,84,0.00,,,0.00,weatherlink.com 1.10,2013-03-27 03:30:00,
2013-03-26 22:45:00,30.3,27.0,30.37,NNW,335,0.0,0.0,86,0.00,,,0.00,weatherlink.com 1.10,2013-03-27 03:45:00,
2013-03-26 23:00:00,30.4,27.0,30.37,NNW,335,0.0,0.0,87,0.00,,,0.00,weatherlink.com 1.10,2013-03-27 04:00:00,
2013-03-26 23:15:00,29.9,27.0,30.37,NNW,335,0.0,0.0,88,0.00,,,0.00,weatherlink.com 1.10,2013-03-27 04:15:00,
2013-03-26 23:30:00,29.6,27.0,30.37,NNW,335,0.0,0.0,88,0.00,,,0.00,weatherlink.com 1.10,2013-03-27 04:30:00,
2013-03-26 23:45:00,29.4,27.0,30.37,NNW,335,0.0,0.0,89,0.00,,,0.00,weatherlink.com 1.10,2013-03-27 04:45:00,